Time;durP1;ratioP1;P1;durP2;ratioP2;P2;SDS_P1;SDS_P2;PMS_P1;PMS_P2;Temp;Humidity;BMP_temperature;BMP_pressure;BME280_temperature;BME280_humidity;BME280_pressure;Samples;Min_cycle;Max_cycle;Signal;HPM_P1;HPM_P2
2022/12/24 00:02:00;;;;;;;117.07;34.97;;;5.70;99.90;;;;;;4993005;28;20100;-79
2022/12/24 00:04:26;;;;;;;93.10;33.33;;;5.60;99.90;;;;;;4991591;28;20053;-80
2022/12/24 00:06:52;;;;;;;100.83;34.23;;;5.80;99.90;;;;;;4977990;28;20439;-80
2022/12/24 00:09:17;;;;;;;132.30;35.63;;;5.70;99.90;;;;;;4990561;28;20046;-80
2022/12/24 00:11:43;;;;;;;99.00;34.17;;;5.80;99.90;;;;;;4992698;28;20121;-80
2022/12/24 00:14:09;;;;;;;103.47;34.53;;;5.70;99.90;;;;;;4990775;28;20121;-79
2022/12/24 00:16:34;;;;;;;120.17;35.20;;;5.70;99.90;;;;;;4979218;28;20388;-79
2022/12/24 00:19:00;;;;;;;124.70;35.10;;;5.70;99.90;;;;;;4989106;28;20094;-80
2022/12/24 00:21:25;;;;;;;120.90;36.57;;;5.70;99.90;;;;;;4992817;28;20049;-80
2022/12/24 00:23:51;;;;;;;123.27;35.43;;;5.70;99.90;;;;;;4992165;28;20452;-79
2022/12/24 00:26:17;;;;;;;134.17;35.27;;;5.70;99.90;;;;;;4982011;28;20109;-80
2022/12/24 00:28:42;;;;;;;157.60;37.60;;;5.70;99.90;;;;;;4987432;28;20112;-79
2022/12/24 00:31:10;;;;;;;137.50;39.60;;;5.60;99.90;;;;;;4992509;28;20377;-79
2022/12/24 00:33:36;;;;;;;140.27;36.83;;;5.60;99.90;;;;;;4990631;28;20404;-80
2022/12/24 00:36:02;;;;;;;116.20;35.43;;;5.60;99.90;;;;;;4993049;28;20046;-79
2022/12/24 00:38:27;;;;;;;144.00;37.27;;;5.60;99.90;;;;;;4976719;28;20054;-79
2022/12/24 00:41:01;;;;;;;156.60;37.57;;;5.80;99.90;;;;;;4993048;28;20098;-80
2022/12/24 00:43:28;;;;;;;111.17;35.60;;;5.70;99.90;;;;;;4990073;28;20085;-80
2022/12/24 00:45:54;;;;;;;126.53;38.47;;;5.70;99.90;;;;;;4992401;28;20057;-80
2022/12/24 00:48:19;;;;;;;114.07;36.13;;;5.80;99.90;;;;;;4976040;28;20046;-81
2022/12/24 00:50:45;;;;;;;125.70;36.50;;;5.60;99.90;;;;;;4991625;28;20053;-80
2022/12/24 00:53:11;;;;;;;148.97;39.00;;;5.80;99.90;;;;;;4991127;28;20093;-80
2022/12/24 00:55:36;;;;;;;187.20;40.27;;;5.70;99.90;;;;;;4990835;28;20540;-80
2022/12/24 00:58:02;;;;;;;191.73;40.37;;;5.60;99.90;;;;;;4975114;28;20122;-79
2022/12/24 01:00:28;;;;;;;165.13;40.30;;;5.70;99.90;;;;;;4981094;28;20130;-79
2022/12/24 01:02:53;;;;;;;169.37;39.53;;;5.60;99.90;;;;;;4971857;28;20452;-81
2022/12/24 01:05:19;;;;;;;130.83;37.87;;;5.70;99.90;;;;;;4973096;28;20086;-79
2022/12/24 01:07:46;;;;;;;159.43;39.57;;;5.70;99.90;;;;;;4957101;28;20042;-80
2022/12/24 01:10:14;;;;;;;139.30;38.53;;;5.70;99.90;;;;;;4992217;28;20050;-80
2022/12/24 01:12:40;;;;;;;128.77;38.07;;;5.70;99.90;;;;;;4991716;28;20049;-80
2022/12/24 01:15:07;;;;;;;166.70;38.90;;;5.70;99.90;;;;;;4990827;28;20066;-80
2022/12/24 01:17:34;;;;;;;187.00;40.53;;;5.70;99.90;;;;;;4974721;28;20034;-80
2022/12/24 01:20:00;;;;;;;196.40;40.77;;;5.70;99.90;;;;;;4992199;28;20069;-80
2022/12/24 01:22:26;;;;;;;204.53;41.57;;;5.70;99.90;;;;;;4990861;28;20089;-80
2022/12/24 01:24:52;;;;;;;161.20;39.27;;;5.80;99.90;;;;;;4992197;28;20046;-80
2022/12/24 01:27:19;;;;;;;181.17;41.40;;;5.70;99.90;;;;;;4976307;28;20046;-79
2022/12/24 01:29:45;;;;;;;184.60;38.60;;;5.70;99.90;;;;;;4990702;28;20050;-79
2022/12/24 01:32:10;;;;;;;136.57;38.00;;;5.80;99.90;;;;;;4991262;28;20092;-79
2022/12/24 01:34:36;;;;;;;125.80;37.27;;;5.90;99.90;;;;;;4974967;28;20085;-80
2022/12/24 01:37:02;;;;;;;144.03;37.17;;;5.80;99.90;;;;;;4975442;28;20049;-79
2022/12/24 01:39:28;;;;;;;147.43;38.40;;;5.80;99.90;;;;;;4991425;28;20049;-80
2022/12/24 01:44:42;;;;;;;139.93;37.90;;;5.80;99.90;;;;;;4990775;28;20134;-79
2022/12/24 01:47:16;;;;;;;139.98;36.38;;;5.80;99.90;;;;;;4974752;28;20259;-80
2022/12/24 01:49:49;;;;;;;165.63;38.93;;;5.60;99.90;;;;;;4990923;28;20386;-78
2022/12/24 01:52:28;;;;;;;174.70;39.77;;;5.70;99.90;;;;;;4990508;28;20050;-80
2022/12/24 01:55:04;;;;;;;149.17;36.90;;;5.70;99.90;;;;;;4973782;28;20054;-80
2022/12/24 01:57:41;;;;;;;175.53;39.93;;;5.70;99.90;;;;;;4974266;28;20042;-79
2022/12/24 02:00:12;;;;;;;165.93;37.90;;;5.70;99.90;;;;;;4991303;28;20054;-79
2022/12/24 02:02:40;;;;;;;162.85;38.92;;;5.80;99.90;;;;;;4989531;28;20062;-80
2022/12/24 02:05:15;;;;;;;155.13;39.10;;;5.80;99.90;;;;;;4990128;28;20100;-79
2022/12/24 02:07:41;;;;;;;266.67;45.07;;;5.80;99.90;;;;;;4975260;28;20070;-79
2022/12/24 02:10:09;;;;;;;276.00;46.17;;;6.00;99.90;;;;;;4991207;28;20057;-80
2022/12/24 02:12:37;;;;;;;225.67;44.07;;;5.80;99.90;;;;;;4989451;28;20076;-79
2022/12/24 02:15:06;;;;;;;236.27;46.63;;;5.80;99.90;;;;;;4990476;28;20050;-79
2022/12/24 02:18:01;;;;;;;195.07;44.10;;;5.80;99.90;;;;;;4974942;28;20408;-79
2022/12/24 02:20:58;;;;;;;171.13;43.03;;;5.80;99.90;;;;;;4990010;28;20081;-79
2022/12/24 02:23:43;;;;;;;248.13;47.53;;;5.80;99.90;;;;;;4989909;28;20167;-79
2022/12/24 02:26:46;;;;;;;277.83;49.00;;;5.80;99.90;;;;;;4985505;28;20058;-82
2022/12/24 02:29:33;;;;;;;301.17;50.80;;;5.90;99.90;;;;;;4989516;28;20511;-79
2022/12/24 02:32:12;;;;;;;209.50;47.10;;;5.80;99.90;;;;;;4991158;28;20047;-79
2022/12/24 02:34:43;;;;;;;248.77;49.07;;;5.90;99.90;;;;;;4990403;28;20051;-80
2022/12/24 02:37:26;;;;;;;253.73;49.50;;;5.90;99.90;;;;;;4974791;28;20055;-80
2022/12/24 02:40:06;;;;;;;213.00;46.77;;;5.80;99.90;;;;;;4990510;28;20050;-80
2022/12/24 02:42:39;;;;;;;228.80;48.77;;;5.90;99.90;;;;;;4989874;28;20137;-80
2022/12/24 02:45:09;;;;;;;234.80;48.23;;;5.90;99.90;;;;;;4988716;28;20057;-80
2022/12/24 02:47:36;;;;;;;195.10;45.37;;;5.80;99.90;;;;;;4972944;28;20049;-79
2022/12/24 02:50:03;;;;;;;217.53;48.37;;;5.90;99.90;;;;;;4990388;28;20050;-79
2022/12/24 02:52:40;;;;;;;194.90;48.23;;;5.80;99.90;;;;;;4989046;28;20038;-81
2022/12/24 02:55:40;;;;;;;247.03;49.67;;;5.90;99.90;;;;;;4990480;28;20054;-80
2022/12/24 02:58:24;;;;;;;241.97;46.57;;;5.90;99.90;;;;;;4973302;28;20054;-79
2022/12/24 03:01:16;;;;;;;176.87;45.67;;;5.90;99.90;;;;;;5000546;28;20046;-79
2022/12/24 03:04:11;;;;;;;211.70;45.20;;;5.90;99.90;;;;;;4985394;28;20034;-80
2022/12/24 03:06:56;;;;;;;190.03;45.17;;;5.90;99.90;;;;;;4970383;28;20045;-79
2022/12/24 03:09:33;;;;;;;184.43;45.27;;;6.00;99.90;;;;;;4989486;28;20519;-80
2022/12/24 03:12:14;;;;;;;136.03;41.20;;;6.00;99.90;;;;;;4988980;28;20096;-79
2022/12/24 03:14:41;;;;;;;143.20;41.90;;;5.90;99.90;;;;;;4990078;28;20107;-79
2022/12/24 03:17:08;;;;;;;142.37;42.63;;;6.00;99.90;;;;;;4974592;28;20050;-79
2022/12/24 03:19:34;;;;;;;119.70;42.40;;;6.30;99.90;;;;;;4989142;28;20046;-79
2022/12/24 03:22:06;;;;;;;127.10;43.70;;;6.40;99.90;;;;;;4990147;28;20064;-81
2022/12/24 03:24:32;;;;;;;;;;;6.50;99.90;;;;;;4988982;28;20050;-79
2022/12/24 03:26:59;;;;;;;132.87;43.67;;;6.50;99.90;;;;;;4974089;28;20306;-79
2022/12/24 03:29:25;;;;;;;97.17;52.10;;;6.50;99.90;;;;;;4989120;28;20117;-78
2022/12/24 03:31:57;;;;;;;92.00;43.97;;;6.60;99.90;;;;;;4990668;28;20580;-79
2022/12/24 03:34:23;;;;;;;96.93;41.03;;;6.80;99.90;;;;;;4989790;28;20392;-79
2022/12/24 03:36:49;;;;;;;86.03;39.80;;;6.80;99.90;;;;;;4973917;28;20054;-79
2022/12/24 03:39:15;;;;;;;87.90;46.03;;;6.80;99.90;;;;;;4989597;28;20047;-79
2022/12/24 03:41:41;;;;;;;90.97;40.30;;;6.80;99.90;;;;;;4990083;28;20054;-79
2022/12/24 03:44:06;;;;;;;94.40;39.77;;;6.90;99.90;;;;;;4971981;28;20050;-80
2022/12/24 03:46:32;;;;;;;78.77;38.73;;;6.70;99.90;;;;;;4976427;28;20101;-80
2022/12/24 03:48:58;;;;;;;76.07;38.47;;;6.90;99.90;;;;;;4987268;28;20050;-80
2022/12/24 03:51:24;;;;;;;74.30;34.77;;;7.00;99.90;;;;;;4989159;28;20042;-78
2022/12/24 03:53:55;;;;;;;64.63;43.67;;;7.00;99.90;;;;;;4988991;28;20397;-80
2022/12/24 03:56:21;;;;;;;56.55;40.72;;;7.10;99.90;;;;;;4979134;28;20065;-79
2022/12/24 03:58:47;;;;;;;64.67;28.90;;;7.20;99.90;;;;;;4984815;28;20050;-79
2022/12/24 04:01:14;;;;;;;57.70;28.90;;;7.10;99.90;;;;;;4987678;28;20045;-80
2022/12/24 04:03:39;;;;;;;54.03;44.30;;;7.10;99.90;;;;;;4987640;28;20042;-78
2022/12/24 04:06:12;;;;;;;49.57;25.97;;;7.30;99.90;;;;;;4989945;28;20046;-80
2022/12/24 04:08:38;;;;;;;48.23;32.00;;;7.20;99.90;;;;;;4981932;28;20374;-79
2022/12/24 04:11:05;;;;;;;39.20;22.60;;;7.20;99.90;;;;;;4985099;28;20680;-78
2022/12/24 04:13:31;;;;;;;42.10;26.30;;;7.20;99.90;;;;;;4968987;28;20061;-79
2022/12/24 04:16:02;;;;;;;40.53;25.40;;;7.20;99.90;;;;;;4970547;28;20059;-79
2022/12/24 04:18:28;;;;;;;54.70;49.15;;;7.20;99.90;;;;;;4954979;28;20047;-79
2022/12/24 04:20:54;;;;;;;43.10;21.33;;;7.30;99.90;;;;;;4970336;28;20046;-79
2022/12/24 04:23:20;;;;;;;48.17;20.57;;;7.30;99.90;;;;;;4982881;28;20046;-79
2022/12/24 04:25:46;;;;;;;57.80;27.70;;;7.50;99.90;;;;;;4986406;28;20054;-79
2022/12/24 04:28:12;;;;;;;55.10;39.23;;;7.40;99.90;;;;;;4973488;28;20039;-79
2022/12/24 04:30:39;;;;;;;47.07;20.67;;;7.50;99.90;;;;;;4989417;28;20050;-79
2022/12/24 04:33:05;;;;;;;156.03;142.17;;;7.60;99.90;;;;;;4988495;28;20038;-81
2022/12/24 04:35:30;;;;;;;155.97;141.33;;;7.60;99.90;;;;;;4989276;28;20046;-78
2022/12/24 04:37:56;;;;;;;56.50;29.27;;;7.60;99.90;;;;;;4973613;28;20053;-79
2022/12/24 04:40:22;;;;;;;66.17;33.73;;;7.60;99.90;;;;;;4992725;28;20153;-80
2022/12/24 04:42:49;;;;;;;73.60;34.37;;;7.70;99.90;;;;;;4991991;28;20038;-78
2022/12/24 04:45:15;;;;;;;255.97;234.00;;;7.70;99.90;;;;;;4992861;28;20050;-78
2022/12/24 04:47:41;;;;;;;69.40;37.97;;;7.80;99.90;;;;;;4975912;28;20500;-79
2022/12/24 04:50:07;;;;;;;71.83;32.17;;;7.70;99.90;;;;;;4992989;28;20050;-78
2022/12/24 04:52:33;;;;;;;63.27;18.73;;;7.80;99.90;;;;;;4990590;28;20046;-79
2022/12/24 04:54:59;;;;;;;63.63;16.57;;;7.80;99.90;;;;;;4991197;28;20058;-79
2022/12/24 04:57:25;;;;;;;51.57;17.00;;;7.80;99.90;;;;;;4976292;28;20077;-78
2022/12/24 04:59:50;;;;;;;54.63;20.80;;;7.70;99.90;;;;;;4992902;28;20112;-79
2022/12/24 05:02:16;;;;;;;70.63;39.90;;;7.70;99.90;;;;;;4991603;28;20133;-78
2022/12/24 05:04:42;;;;;;;58.57;21.93;;;7.70;99.90;;;;;;4992241;28;20050;-78
2022/12/24 05:07:07;;;;;;;52.77;14.07;;;7.70;99.90;;;;;;4975582;28;20054;-79
2022/12/24 05:09:33;;;;;;;48.70;13.77;;;7.60;99.90;;;;;;4991770;28;20070;-79
2022/12/24 05:11:59;;;;;;;61.50;17.87;;;7.70;99.90;;;;;;4993376;28;20054;-79
2022/12/24 05:14:24;;;;;;;53.33;24.93;;;7.70;99.90;;;;;;4991679;28;20082;-79
2022/12/24 05:16:50;;;;;;;66.57;20.77;;;7.70;99.90;;;;;;4976775;28;20061;-79
2022/12/24 05:19:16;;;;;;;59.50;17.17;;;7.70;99.90;;;;;;4990682;28;20069;-80
2022/12/24 05:21:41;;;;;;;60.90;19.63;;;7.70;99.90;;;;;;4992356;28;20056;-79
2022/12/24 05:26:56;;;;;;;66.83;17.10;;;7.70;99.90;;;;;;4977314;28;20062;-79
2022/12/24 05:29:23;;;;;;;66.23;20.73;;;7.70;99.90;;;;;;4989414;28;20042;-79
2022/12/24 05:31:49;;;;;;;83.57;51.10;;;7.70;99.90;;;;;;4991961;28;20069;-79
2022/12/24 05:34:15;;;;;;;66.53;16.83;;;7.70;99.90;;;;;;4989933;28;20477;-78
2022/12/24 05:36:42;;;;;;;66.27;19.50;;;7.60;99.90;;;;;;4978281;28;20403;-79
2022/12/24 05:39:14;;;;;;;62.63;17.00;;;7.70;99.90;;;;;;4989971;28;20477;-79
2022/12/24 05:41:40;;;;;;;73.03;18.17;;;7.70;99.90;;;;;;4990293;28;20046;-79
2022/12/24 05:44:05;;;;;;;62.67;21.37;;;7.60;99.90;;;;;;4991140;28;20061;-79
2022/12/24 05:46:31;;;;;;;57.63;15.90;;;7.70;99.90;;;;;;4976942;28;20054;-80
2022/12/24 05:48:57;;;;;;;61.20;18.57;;;7.70;99.90;;;;;;4989440;28;20050;-79
2022/12/24 05:51:22;;;;;;;64.40;29.07;;;7.70;99.90;;;;;;4991664;28;20046;-79
2022/12/24 05:53:50;;;;;;;63.50;24.47;;;7.70;99.90;;;;;;4984508;28;20055;-79
2022/12/24 05:56:19;;;;;;;65.70;18.77;;;7.70;99.90;;;;;;4960622;28;20469;-81
2022/12/24 05:58:45;;;;;;;74.23;43.10;;;7.70;99.90;;;;;;4978809;28;20046;-79
2022/12/24 06:01:12;;;;;;;60.00;15.07;;;7.90;99.90;;;;;;4988707;28;20081;-79
2022/12/24 06:03:38;;;;;;;59.63;13.60;;;7.70;99.90;;;;;;4986488;28;20045;-79
2022/12/24 06:06:12;;;;;;;54.80;20.90;;;7.70;99.90;;;;;;4987416;28;20046;-79
2022/12/24 06:08:41;;;;;;;73.03;20.43;;;7.70;99.90;;;;;;4980956;28;20038;-79
2022/12/24 06:11:09;;;;;;;55.03;17.37;;;7.70;99.90;;;;;;4988409;28;20468;-79
2022/12/24 06:13:36;;;;;;;61.00;20.23;;;7.80;99.90;;;;;;4986650;28;20310;-79
2022/12/24 06:16:03;;;;;;;66.10;17.13;;;7.60;99.90;;;;;;4990996;28;20042;-81
2022/12/24 06:18:31;;;;;;;60.37;15.63;;;7.70;99.90;;;;;;4974499;28;20181;-80
2022/12/24 06:20:57;;;;;;;69.80;23.13;;;7.70;99.90;;;;;;4991390;28;20042;-79
2022/12/24 06:23:24;;;;;;;60.13;20.03;;;7.60;99.90;;;;;;4989226;28;20506;-79
2022/12/24 06:25:50;;;;;;;55.83;16.60;;;7.70;99.90;;;;;;4989869;28;20042;-79
2022/12/24 06:28:17;;;;;;;61.97;14.50;;;7.70;99.90;;;;;;4973818;28;20034;-79
2022/12/24 06:30:47;;;;;;;65.93;16.47;;;7.70;99.90;;;;;;4990726;28;20054;-79
2022/12/24 06:33:13;;;;;;;50.43;13.30;;;7.60;99.90;;;;;;4973196;28;20093;-79
2022/12/24 06:35:39;;;;;;;70.10;25.73;;;7.70;99.90;;;;;;4990740;28;20058;-81
2022/12/24 06:38:05;;;;;;;72.70;26.47;;;7.70;99.90;;;;;;4975751;28;20471;-79
2022/12/24 06:40:30;;;;;;;65.27;24.70;;;7.70;99.90;;;;;;4990340;28;20097;-79
2022/12/24 06:42:56;;;;;;;71.47;27.67;;;7.60;99.90;;;;;;4983310;28;20051;-79
2022/12/24 06:45:22;;;;;;;72.23;32.23;;;7.70;99.90;;;;;;5001308;28;20043;-80
2022/12/24 06:47:47;;;;;;;65.10;19.93;;;7.80;99.90;;;;;;4972494;28;20096;-79
2022/12/24 06:50:13;;;;;;;61.30;15.77;;;7.80;99.90;;;;;;4987819;28;20496;-79
2022/12/24 06:52:38;;;;;;;67.60;35.57;;;7.60;99.90;;;;;;4989657;28;20065;-79
2022/12/24 06:55:05;;;;;;;61.07;31.53;;;7.60;99.90;;;;;;4985205;28;20054;-79
2022/12/24 06:57:31;;;;;;;61.80;29.57;;;7.70;99.90;;;;;;4955227;28;20101;-81
2022/12/24 06:59:57;;;;;;;74.90;25.60;;;7.70;99.90;;;;;;4997857;28;20042;-79
2022/12/24 07:02:23;;;;;;;64.90;26.87;;;7.80;99.90;;;;;;4968490;28;20153;-81
2022/12/24 07:04:49;;;;;;;60.23;24.50;;;7.70;99.90;;;;;;4971071;28;20058;-79
2022/12/24 07:07:15;;;;;;;68.20;29.83;;;7.70;99.90;;;;;;4954933;28;20385;-79
2022/12/24 07:09:41;;;;;;;60.40;22.17;;;7.60;99.90;;;;;;4974363;28;20042;-80
2022/12/24 07:12:07;;;;;;;54.90;13.70;;;7.60;99.90;;;;;;4988745;28;20050;-79
2022/12/24 07:14:32;;;;;;;69.50;14.83;;;7.60;99.90;;;;;;4989030;28;20034;-79
2022/12/24 07:16:58;;;;;;;66.87;25.93;;;7.50;99.90;;;;;;4973495;28;20049;-79
2022/12/24 07:19:24;;;;;;;64.57;15.90;;;7.60;99.90;;;;;;4989192;28;20050;-79
2022/12/24 07:21:50;;;;;;;65.23;19.60;;;7.50;99.90;;;;;;4967984;28;20131;-79
2022/12/24 07:24:15;;;;;;;63.03;20.53;;;7.50;99.90;;;;;;4977453;28;20050;-79
2022/12/24 07:26:41;;;;;;;69.73;21.73;;;7.50;99.90;;;;;;4959700;28;20039;-79
2022/12/24 07:29:07;;;;;;;70.17;44.40;;;7.30;99.90;;;;;;4965127;28;20545;-79
2022/12/24 07:31:33;;;;;;;59.70;26.67;;;7.40;99.90;;;;;;4966041;28;20058;-79
2022/12/24 07:33:59;;;;;;;67.83;21.63;;;7.40;99.90;;;;;;4964105;28;20174;-79
2022/12/24 07:36:27;;;;;;;62.03;28.00;;;7.40;99.90;;;;;;4956139;28;20089;-79
2022/12/24 07:38:53;;;;;;;61.03;14.43;;;7.40;99.90;;;;;;4981373;28;20395;-79
2022/12/24 07:41:19;;;;;;;54.07;15.67;;;7.40;99.90;;;;;;4968159;28;20070;-80
2022/12/24 07:43:45;;;;;;;64.10;20.30;;;7.40;99.90;;;;;;4966352;28;20071;-80
2022/12/24 07:46:11;;;;;;;73.83;13.63;;;7.40;99.90;;;;;;4961904;28;20555;-79
2022/12/24 07:48:37;;;;;;;62.90;18.17;;;7.50;99.90;;;;;;4958374;28;20088;-79
2022/12/24 07:51:03;;;;;;;50.83;12.63;;;7.60;99.90;;;;;;4965073;28;20042;-79
2022/12/24 07:53:30;;;;;;;66.07;15.73;;;7.50;99.90;;;;;;4965706;28;20085;-81
2022/12/24 07:55:56;;;;;;;55.07;19.60;;;7.50;99.90;;;;;;4968385;28;20063;-80
2022/12/24 07:58:22;;;;;;;47.77;13.77;;;7.60;99.90;;;;;;4968224;28;20116;-79
2022/12/24 08:00:48;;;;;;;56.47;21.67;;;7.70;99.90;;;;;;4979465;28;20492;-79
2022/12/24 08:03:16;;;;;;;59.20;14.20;;;7.70;99.90;;;;;;4965583;28;20039;-78
2022/12/24 08:05:42;;;;;;;62.93;28.70;;;7.70;99.90;;;;;;4966750;28;20527;-79
2022/12/24 08:08:08;;;;;;;65.23;23.23;;;7.80;99.90;;;;;;4950564;28;20042;-80
2022/12/24 08:10:37;;;;;;;58.47;16.13;;;7.80;99.90;;;;;;4969541;28;20463;-79
2022/12/24 08:13:02;;;;;;;62.43;15.03;;;7.90;99.90;;;;;;4966488;28;20051;-79
2022/12/24 08:15:28;;;;;;;62.30;15.77;;;7.80;99.90;;;;;;5001670;28;20043;-79
2022/12/24 08:17:54;;;;;;;54.70;15.63;;;7.80;99.90;;;;;;4955788;28;20081;-80
2022/12/24 08:20:19;;;;;;;64.30;24.83;;;7.80;99.90;;;;;;4970923;28;20050;-79
2022/12/24 08:22:45;;;;;;;55.77;17.33;;;7.90;99.90;;;;;;4971062;28;20101;-80
2022/12/24 08:25:10;;;;;;;95.47;85.40;;;7.90;99.90;;;;;;4970409;28;20084;-79
2022/12/24 08:27:37;;;;;;;69.07;36.30;;;7.90;99.90;;;;;;4954481;28;20473;-78
2022/12/24 08:30:04;;;;;;;61.53;29.53;;;7.80;99.90;;;;;;4969441;28;20093;-79
2022/12/24 08:32:29;;;;;;;66.73;39.93;;;7.90;99.90;;;;;;4989240;28;20445;-78
2022/12/24 08:34:55;;;;;;;68.87;34.87;;;7.90;99.90;;;;;;4972858;28;20073;-79
2022/12/24 08:37:20;;;;;;;62.73;28.03;;;8.00;99.90;;;;;;4975085;28;20411;-79
2022/12/24 08:39:46;;;;;;;66.70;36.83;;;7.90;99.90;;;;;;4990446;28;20046;-79
2022/12/24 08:42:12;;;;;;;58.60;29.77;;;7.90;99.90;;;;;;4989217;28;20045;-79
2022/12/24 08:44:37;;;;;;;73.53;50.13;;;7.90;99.90;;;;;;4990117;28;20050;-79
2022/12/24 08:47:03;;;;;;;72.80;30.67;;;7.80;99.90;;;;;;4954717;28;20042;-79
2022/12/24 08:49:29;;;;;;;67.17;35.13;;;7.80;99.90;;;;;;4983938;28;20488;-79
2022/12/24 08:51:55;;;;;;;60.40;33.40;;;7.70;99.90;;;;;;4969549;28;20039;-79
2022/12/24 08:54:22;;;;;;;73.47;37.13;;;7.80;99.90;;;;;;4983277;28;20548;-76
2022/12/24 08:56:48;;;;;;;67.57;36.43;;;7.80;99.90;;;;;;4974410;28;20055;-79
2022/12/24 08:59:13;;;;;;;69.67;36.17;;;7.80;99.90;;;;;;4988438;28;20150;-79
2022/12/24 09:01:39;;;;;;;63.93;38.87;;;8.00;99.90;;;;;;4988339;28;20054;-79
2022/12/24 09:04:05;;;;;;;73.43;36.23;;;8.00;99.90;;;;;;4989373;28;20086;-79
2022/12/24 09:06:32;;;;;;;62.50;36.03;;;8.00;99.90;;;;;;4977127;28;20402;-79
2022/12/24 09:08:57;;;;;;;62.00;35.73;;;8.00;99.90;;;;;;4985320;28;20129;-79
2022/12/24 09:11:24;;;;;;;64.23;40.90;;;8.00;99.90;;;;;;4988536;28;20197;-79
2022/12/24 09:13:50;;;;;;;64.53;35.83;;;8.10;99.90;;;;;;4970867;28;20043;-80
2022/12/24 09:16:15;;;;;;;70.47;53.07;;;8.10;99.90;;;;;;4962124;28;20049;-79
2022/12/24 09:18:41;;;;;;;72.97;57.97;;;8.20;99.90;;;;;;4987206;28;20050;-79
2022/12/24 09:21:10;;;;;;;65.60;33.07;;;8.20;99.90;;;;;;4972592;28;20243;-79
2022/12/24 09:23:39;;;;;;;60.10;38.67;;;8.20;99.90;;;;;;4968744;28;20041;-79
2022/12/24 09:26:06;;;;;;;59.23;37.70;;;8.30;99.90;;;;;;4973021;28;20048;-78
2022/12/24 09:28:32;;;;;;;70.53;47.77;;;8.30;99.90;;;;;;4970344;28;20042;-79
2022/12/24 09:31:00;;;;;;;74.47;48.10;;;8.40;99.90;;;;;;4986875;28;20084;-80
2022/12/24 09:33:29;;;;;;;62.83;40.07;;;8.30;99.90;;;;;;4986774;28;20389;-79
2022/12/24 09:35:55;;;;;;;64.90;36.83;;;8.30;99.90;;;;;;4987280;28;20118;-79
2022/12/24 09:38:21;;;;;;;80.83;32.93;;;8.40;99.90;;;;;;4969687;28;20177;-79
2022/12/24 09:40:48;;;;;;;67.97;37.13;;;8.30;99.90;;;;;;4977208;28;20045;-79
2022/12/24 09:43:17;;;;;;;74.43;40.00;;;8.30;99.90;;;;;;4986464;28;20610;-79
2022/12/24 09:46:02;;;;;;;77.93;63.80;;;8.50;99.90;;;;;;4975389;28;20055;-79
2022/12/24 09:48:30;;;;;;;59.43;31.90;;;8.40;99.90;;;;;;4970970;28;20046;-79
2022/12/24 09:51:01;;;;;;;61.20;40.50;;;8.50;99.90;;;;;;4988335;28;20054;-79
2022/12/24 09:53:35;;;;;;;71.53;44.95;;;8.50;99.90;;;;;;4980132;28;20121;-79
2022/12/24 09:56:05;;;;;;;69.43;35.73;;;8.40;99.90;;;;;;4988925;28;20141;-79
2022/12/24 09:58:47;;;;;;;51.23;36.67;;;8.40;99.90;;;;;;4972677;28;20046;-79
2022/12/24 10:01:15;;;;;;;67.67;42.40;;;8.50;99.90;;;;;;4987259;28;20042;-79
2022/12/24 10:03:41;;;;;;;66.07;45.97;;;8.50;99.90;;;;;;4987903;28;20403;-80
2022/12/24 10:06:22;;;;;;;75.57;59.57;;;8.60;99.90;;;;;;4983772;28;20117;-81
2022/12/24 10:08:47;;;;;;;77.63;48.10;;;8.60;99.90;;;;;;4963115;28;20042;-79
2022/12/24 10:11:49;;;;;;;69.90;38.27;;;8.70;99.90;;;;;;4968704;28;20473;-79
2022/12/24 10:14:36;;;;;;;51.35;34.53;;;8.80;99.90;;;;;;4984392;28;20141;-79
2022/12/24 10:17:38;;;;;;;62.83;49.17;;;8.80;99.90;;;;;;4973299;28;20050;-79
2022/12/24 10:20:27;;;;;;;59.38;47.67;;;8.90;99.90;;;;;;4965660;28;20514;-79
2022/12/24 10:23:06;;;;;;;56.73;38.37;;;8.90;99.90;;;;;;4980821;28;20088;-78
2022/12/24 10:25:52;;;;;;;77.70;61.17;;;8.90;99.90;;;;;;4987886;28;20102;-78
2022/12/24 10:28:24;;;;;;;66.03;49.50;;;9.00;99.90;;;;;;4970235;28;20054;-79
2022/12/24 10:30:53;;;;;;;;;;;9.00;99.90;;;;;;4982064;28;20038;-79
2022/12/24 10:33:27;;;;;;;63.13;38.80;;;9.10;99.90;;;;;;4975740;28;19922;-79
2022/12/24 10:35:55;;;;;;;77.50;56.50;;;9.10;99.90;;;;;;4968362;28;20050;-78
2022/12/24 10:38:21;;;;;;;76.93;61.93;;;9.00;99.90;;;;;;4954318;28;20416;-79
2022/12/24 10:40:50;;;;;;;69.17;48.57;;;9.10;99.90;;;;;;4976550;28;20496;-78
2022/12/24 10:43:36;;;;;;;114.67;103.43;;;9.10;99.90;;;;;;4986882;28;20054;-78
2022/12/24 10:46:05;;;;;;;78.33;69.97;;;9.20;99.90;;;;;;4984205;28;20046;-79
2022/12/24 10:48:38;;;;;;;91.57;82.50;;;9.20;99.90;;;;;;4958064;28;20053;-79
2022/12/24 10:51:17;;;;;;;72.60;64.43;;;9.30;99.90;;;;;;4986181;28;20171;-78
2022/12/24 10:53:48;;;;;;;124.83;113.70;;;9.30;99.90;;;;;;4982804;28;20129;-78
2022/12/24 10:56:16;;;;;;;64.28;45.72;;;9.30;99.90;;;;;;4972798;28;20124;-81
2022/12/24 10:58:52;;;;;;;180.53;167.00;;;9.30;99.90;;;;;;4978677;28;20053;-79
2022/12/24 11:01:19;;;;;;;66.50;56.67;;;9.30;99.90;;;;;;4987210;28;20501;-78
2022/12/24 11:03:59;;;;;;;74.47;64.47;;;9.30;99.90;;;;;;4978381;28;20131;-79
2022/12/24 11:06:25;;;;;;;65.83;57.63;;;9.20;99.90;;;;;;4954175;28;20046;-79
2022/12/24 11:08:51;;;;;;;66.90;46.87;;;9.20;99.90;;;;;;4994330;28;20046;-79
2022/12/24 11:11:19;;;;;;;62.77;47.70;;;9.20;99.90;;;;;;4968255;28;20133;-79
2022/12/24 11:13:54;;;;;;;80.87;72.77;;;9.20;99.90;;;;;;4965815;28;20046;-79
2022/12/24 11:16:34;;;;;;;59.13;36.20;;;9.20;99.90;;;;;;4972177;28;20161;-79
2022/12/24 11:19:16;;;;;;;83.97;75.70;;;9.20;99.90;;;;;;4983114;28;20098;-78
2022/12/24 11:21:42;;;;;;;70.47;63.30;;;9.20;99.90;;;;;;4985448;28;20142;-79
2022/12/24 11:24:24;;;;;;;60.50;49.87;;;9.20;99.90;;;;;;4984390;28;20479;-78
2022/12/24 11:26:50;;;;;;;91.83;82.63;;;9.20;99.90;;;;;;4971839;28;20082;-79
2022/12/24 11:29:24;;;;;;;50.57;36.70;;;9.10;99.90;;;;;;4986290;28;20524;-80
2022/12/24 11:31:52;;;;;;;69.23;62.37;;;9.20;99.90;;;;;;4986757;28;20141;-79
2022/12/24 11:34:29;;;;;;;82.60;74.53;;;9.20;99.90;;;;;;4986301;28;20400;-79
2022/12/24 11:37:12;;;;;;;63.10;56.37;;;9.20;99.90;;;;;;4971857;28;20050;-79
2022/12/24 11:39:52;;;;;;;84.30;77.17;;;9.20;99.90;;;;;;4985527;28;20133;-79
2022/12/24 11:42:31;;;;;;;50.58;39.47;;;9.20;99.90;;;;;;5000828;28;20444;-79
2022/12/24 11:44:58;;;;;;;46.10;36.17;;;9.30;99.90;;;;;;4986390;28;20108;-79
2022/12/24 11:47:39;;;;;;;71.27;64.90;;;9.30;99.90;;;;;;4969383;28;20600;-78
2022/12/24 11:50:28;;;;;;;54.20;47.93;;;9.30;99.90;;;;;;4983437;28;20137;-80
2022/12/24 11:53:04;;;;;;;67.93;61.60;;;9.30;99.90;;;;;;4988229;28;20374;-78
2022/12/24 11:55:46;;;;;;;93.00;85.20;;;9.40;99.90;;;;;;4988087;28;20046;-78
2022/12/24 11:58:21;;;;;;;67.17;60.57;;;9.30;99.90;;;;;;4974240;28;20042;-79
2022/12/24 12:00:50;;;;;;;67.90;58.13;;;9.40;99.90;;;;;;4987176;28;20050;-79
2022/12/24 12:03:39;;;;;;;95.43;86.73;;;9.40;99.90;;;;;;4989838;28;20377;-80
2022/12/24 12:06:24;;;;;;;51.33;45.83;;;9.30;99.90;;;;;;4989246;28;20358;-79
2022/12/24 12:09:00;;;;;;;75.73;68.67;;;9.30;99.90;;;;;;4982088;28;20129;-78
2022/12/24 12:11:27;;;;;;;54.90;43.43;;;9.30;99.90;;;;;;4973448;28;20061;-79
2022/12/24 12:13:56;;;;;;;140.40;129.90;;;9.20;99.90;;;;;;4968108;28;20442;-78
2022/12/24 12:16:59;;;;;;;51.07;46.70;;;9.20;99.90;;;;;;4960417;28;20135;-79
2022/12/24 12:19:16;;;;;;;42.30;36.77;;;9.20;99.90;;;;;;4994647;28;20102;-79
2022/12/24 12:21:45;;;;;;;43.20;36.40;;;9.20;99.90;;;;;;4974992;28;20042;-79
2022/12/24 12:24:26;;;;;;;74.77;67.87;;;9.20;99.90;;;;;;4989077;28;20050;-78
2022/12/24 12:27:03;;;;;;;82.55;75.80;;;9.20;99.90;;;;;;4969334;28;20057;-78
2022/12/24 12:29:35;;;;;;;49.07;43.83;;;9.20;99.90;;;;;;4988965;28;20295;-79
2022/12/24 12:32:09;;;;;;;37.63;25.13;;;9.20;99.90;;;;;;4990809;28;20092;-78
2022/12/24 12:35:01;;;;;;;29.37;22.10;;;9.20;99.90;;;;;;4987995;28;20516;-79
2022/12/24 12:37:29;;;;;;;;;;;9.20;99.90;;;;;;4962144;28;20047;-79
2022/12/24 12:39:55;;;;;;;36.77;26.63;;;9.20;99.90;;;;;;5005404;28;19918;-79
2022/12/24 12:42:27;;;;;;;46.30;37.33;;;9.30;99.90;;;;;;4989027;28;20188;-79
2022/12/24 12:45:11;;;;;;;66.57;60.47;;;9.30;99.90;;;;;;4988958;28;20411;-79
2022/12/24 12:48:04;;;;;;;52.50;42.20;;;9.30;99.90;;;;;;4973445;28;20078;-79
2022/12/24 12:51:04;;;;;;;58.20;52.00;;;9.40;99.90;;;;;;4988452;28;20078;-78
2022/12/24 12:53:36;;;;;;;98.63;90.57;;;9.40;99.90;;;;;;4984167;28;20046;-79
2022/12/24 12:56:10;;;;;;;;;;;9.40;99.90;;;;;;4990339;28;20528;-78